sensor_id;sensor_type;location;lat;lon;timestamp;temperature;humidity
35668;DHT22;22158;59.280;17.806;2023-05-10T05:01:54;9.60;99.10
35668;DHT22;22158;59.280;17.806;2023-05-10T05:04:20;9.70;99.10
35668;DHT22;22158;59.280;17.806;2023-05-10T05:06:46;9.80;99.10
35668;DHT22;22158;59.280;17.806;2023-05-10T05:09:11;9.90;98.70
35668;DHT22;22158;59.280;17.806;2023-05-10T05:11:37;10.00;98.70
35668;DHT22;22158;59.280;17.806;2023-05-10T05:14:02;10.00;98.70
35668;DHT22;22158;59.280;17.806;2023-05-10T05:16:30;10.10;98.30
35668;DHT22;22158;59.280;17.806;2023-05-10T05:18:57;10.10;98.10
35668;DHT22;22158;59.280;17.806;2023-05-10T05:21:22;10.20;98.00
35668;DHT22;22158;59.280;17.806;2023-05-10T05:23:49;10.20;98.00
35668;DHT22;22158;59.280;17.806;2023-05-10T05:26:14;10.20;98.00
35668;DHT22;22158;59.280;17.806;2023-05-10T05:28:40;10.30;97.80
35668;DHT22;22158;59.280;17.806;2023-05-10T05:31:06;10.40;97.70
35668;DHT22;22158;59.280;17.806;2023-05-10T05:33:35;10.40;97.70
35668;DHT22;22158;59.280;17.806;2023-05-10T05:36:02;10.50;97.20
35668;DHT22;22158;59.280;17.806;2023-05-10T05:38:28;10.60;96.90
35668;DHT22;22158;59.280;17.806;2023-05-10T05:40:54;10.80;97.00
35668;DHT22;22158;59.280;17.806;2023-05-10T05:43:19;10.90;96.80
35668;DHT22;22158;59.280;17.806;2023-05-10T05:45:45;10.90;96.70
35668;DHT22;22158;59.280;17.806;2023-05-10T05:48:10;11.00;97.00
35668;DHT22;22158;59.280;17.806;2023-05-10T05:50:39;11.00;96.60
35668;DHT22;22158;59.280;17.806;2023-05-10T05:53:05;11.10;96.70
35668;DHT22;22158;59.280;17.806;2023-05-10T05:55:30;11.20;96.50
35668;DHT22;22158;59.280;17.806;2023-05-10T05:57:57;11.20;96.20
35668;DHT22;22158;59.280;17.806;2023-05-10T06:00:23;11.30;96.10
35668;DHT22;22158;59.280;17.806;2023-05-10T06:02:49;11.40;95.80
35668;DHT22;22158;59.280;17.806;2023-05-10T06:05:15;11.50;95.90
35668;DHT22;22158;59.280;17.806;2023-05-10T06:07:40;11.50;95.90
35668;DHT22;22158;59.280;17.806;2023-05-10T06:10:08;11.60;95.80
35668;DHT22;22158;59.280;17.806;2023-05-10T06:12:34;11.70;95.30
35668;DHT22;22158;59.280;17.806;2023-05-10T06:14:59;11.80;95.20
35668;DHT22;22158;59.280;17.806;2023-05-10T06:17:25;11.90;95.00
35668;DHT22;22158;59.280;17.806;2023-05-10T06:19:52;11.90;94.90
35668;DHT22;22158;59.280;17.806;2023-05-10T06:22:18;12.00;94.80
35668;DHT22;22158;59.280;17.806;2023-05-10T06:24:44;12.00;94.60
35668;DHT22;22158;59.280;17.806;2023-05-10T06:27:09;12.00;94.30
35668;DHT22;22158;59.280;17.806;2023-05-10T06:29:35;12.20;94.10
35668;DHT22;22158;59.280;17.806;2023-05-10T06:32:00;12.30;93.50
35668;DHT22;22158;59.280;17.806;2023-05-10T06:34:26;12.40;93.60
35668;DHT22;22158;59.280;17.806;2023-05-10T06:36:52;12.50;93.20
35668;DHT22;22158;59.280;17.806;2023-05-10T06:39:18;12.60;93.60
35668;DHT22;22158;59.280;17.806;2023-05-10T06:41:43;12.80;92.90
35668;DHT22;22158;59.280;17.806;2023-05-10T06:44:09;12.90;93.20
35668;DHT22;22158;59.280;17.806;2023-05-10T06:46:35;13.00;92.90
35668;DHT22;22158;59.280;17.806;2023-05-10T06:49:00;13.10;92.20
35668;DHT22;22158;59.280;17.806;2023-05-10T06:51:26;13.20;91.50
35668;DHT22;22158;59.280;17.806;2023-05-10T06:53:51;13.40;91.50
35668;DHT22;22158;59.280;17.806;2023-05-10T06:56:17;13.40;91.20
35668;DHT22;22158;59.280;17.806;2023-05-10T06:58:42;13.50;91.00
35668;DHT22;22158;59.280;17.806;2023-05-10T07:01:08;13.70;90.70
35668;DHT22;22158;59.280;17.806;2023-05-10T07:03:33;13.70;90.60
35668;DHT22;22158;59.280;17.806;2023-05-10T07:06:03;13.80;90.60
35668;DHT22;22158;59.280;17.806;2023-05-10T07:08:30;13.90;90.10
35668;DHT22;22158;59.280;17.806;2023-05-10T07:11:03;14.00;90.20
35668;DHT22;22158;59.280;17.806;2023-05-10T07:13:33;14.10;90.80
35668;DHT22;22158;59.280;17.806;2023-05-10T07:16:00;14.30;88.30
35668;DHT22;22158;59.280;17.806;2023-05-10T07:18:25;14.40;88.60
35668;DHT22;22158;59.280;17.806;2023-05-10T07:20:51;14.40;88.00
35668;DHT22;22158;59.280;17.806;2023-05-10T07:23:17;14.50;86.40
35668;DHT22;22158;59.280;17.806;2023-05-10T07:25:45;14.70;85.50
35668;DHT22;22158;59.280;17.806;2023-05-10T07:28:11;14.90;85.90
35668;DHT22;22158;59.280;17.806;2023-05-10T07:30:36;14.90;85.50
35668;DHT22;22158;59.280;17.806;2023-05-10T07:33:02;15.10;85.10
35668;DHT22;22158;59.280;17.806;2023-05-10T07:35:27;15.20;84.10
35668;DHT22;22158;59.280;17.806;2023-05-10T07:37:53;15.20;83.30
35668;DHT22;22158;59.280;17.806;2023-05-10T07:40:19;15.30;83.30
35668;DHT22;22158;59.280;17.806;2023-05-10T07:42:45;15.40;81.10
35668;DHT22;22158;59.280;17.806;2023-05-10T07:45:10;15.40;80.80
35668;DHT22;22158;59.280;17.806;2023-05-10T07:47:36;15.40;82.10
35668;DHT22;22158;59.280;17.806;2023-05-10T07:50:02;15.60;79.20
35668;DHT22;22158;59.280;17.806;2023-05-10T07:52:27;15.70;78.00
35668;DHT22;22158;59.280;17.806;2023-05-10T07:54:53;15.80;80.00
35668;DHT22;22158;59.280;17.806;2023-05-10T07:57:19;15.90;77.60
35668;DHT22;22158;59.280;17.806;2023-05-10T07:59:44;16.00;78.40
35668;DHT22;22158;59.280;17.806;2023-05-10T08:02:10;16.10;76.60
35668;DHT22;22158;59.280;17.806;2023-05-10T08:04:36;16.20;75.60
35668;DHT22;22158;59.280;17.806;2023-05-10T08:07:02;16.30;75.10
35668;DHT22;22158;59.280;17.806;2023-05-10T08:09:27;16.40;77.10
35668;DHT22;22158;59.280;17.806;2023-05-10T08:11:53;16.50;74.50
35668;DHT22;22158;59.280;17.806;2023-05-10T08:14:18;16.60;75.40
35668;DHT22;22158;59.280;17.806;2023-05-10T08:16:44;16.70;74.10
35668;DHT22;22158;59.280;17.806;2023-05-10T08:19:09;16.70;71.40
35668;DHT22;22158;59.280;17.806;2023-05-10T08:21:35;16.70;72.80
35668;DHT22;22158;59.280;17.806;2023-05-10T08:24:01;16.80;72.70
35668;DHT22;22158;59.280;17.806;2023-05-10T08:26:27;16.90;72.10
35668;DHT22;22158;59.280;17.806;2023-05-10T08:28:52;17.00;69.00
35668;DHT22;22158;59.280;17.806;2023-05-10T08:31:18;17.00;67.10
35668;DHT22;22158;59.280;17.806;2023-05-10T08:33:44;17.10;62.40
35668;DHT22;22158;59.280;17.806;2023-05-10T08:36:10;17.00;64.10
35668;DHT22;22158;59.280;17.806;2023-05-10T08:38:35;17.10;63.50
35668;DHT22;22158;59.280;17.806;2023-05-10T08:41:02;17.10;62.50
35668;DHT22;22158;59.280;17.806;2023-05-10T08:43:29;17.20;63.00
35668;DHT22;22158;59.280;17.806;2023-05-10T08:45:55;17.20;63.80
35668;DHT22;22158;59.280;17.806;2023-05-10T08:48:24;17.20;59.80
35668;DHT22;22158;59.280;17.806;2023-05-10T08:50:52;17.20;60.50
35668;DHT22;22158;59.280;17.806;2023-05-10T08:53:19;17.20;62.20
35668;DHT22;22158;59.280;17.806;2023-05-10T08:55:46;17.40;63.00
35668;DHT22;22158;59.280;17.806;2023-05-10T08:58:12;17.50;59.90
35668;DHT22;22158;59.280;17.806;2023-05-10T09:00:37;17.50;60.50
35668;DHT22;22158;59.280;17.806;2023-05-10T09:03:04;17.60;59.60
35668;DHT22;22158;59.280;17.806;2023-05-10T09:05:30;17.70;59.20
35668;DHT22;22158;59.280;17.806;2023-05-10T09:07:56;17.80;59.30
35668;DHT22;22158;59.280;17.806;2023-05-10T09:10:22;17.80;58.20
35668;DHT22;22158;59.280;17.806;2023-05-10T09:12:51;17.90;60.30
35668;DHT22;22158;59.280;17.806;2023-05-10T09:15:17;17.90;59.80
35668;DHT22;22158;59.280;17.806;2023-05-10T09:17:44;18.10;58.70
35668;DHT22;22158;59.280;17.806;2023-05-10T09:20:10;18.20;57.20
35668;DHT22;22158;59.280;17.806;2023-05-10T09:22:36;18.20;57.60
35668;DHT22;22158;59.280;17.806;2023-05-10T09:27:35;18.20;57.20
35668;DHT22;22158;59.280;17.806;2023-05-10T09:30:02;18.30;57.60
35668;DHT22;22158;59.280;17.806;2023-05-10T09:32:40;18.40;57.20
35668;DHT22;22158;59.280;17.806;2023-05-10T09:35:11;18.60;57.60
35668;DHT22;22158;59.280;17.806;2023-05-10T09:37:39;18.70;54.80
35668;DHT22;22158;59.280;17.806;2023-05-10T09:40:12;18.60;55.20
35668;DHT22;22158;59.280;17.806;2023-05-10T09:42:38;18.60;54.80
35668;DHT22;22158;59.280;17.806;2023-05-10T09:45:04;18.70;55.90
35668;DHT22;22158;59.280;17.806;2023-05-10T09:47:37;18.70;54.80
35668;DHT22;22158;59.280;17.806;2023-05-10T09:50:03;18.80;55.80
35668;DHT22;22158;59.280;17.806;2023-05-10T09:52:30;18.80;55.80
35668;DHT22;22158;59.280;17.806;2023-05-10T09:54:56;18.90;54.90
35668;DHT22;22158;59.280;17.806;2023-05-10T09:57:23;18.90;54.80
35668;DHT22;22158;59.280;17.806;2023-05-10T09:59:49;18.80;53.10
35668;DHT22;22158;59.280;17.806;2023-05-10T10:02:16;18.80;54.20
35668;DHT22;22158;59.280;17.806;2023-05-10T10:04:42;18.70;54.30
35668;DHT22;22158;59.280;17.806;2023-05-10T10:07:08;18.80;56.20
35668;DHT22;22158;59.280;17.806;2023-05-10T10:09:34;18.80;54.50
35668;DHT22;22158;59.280;17.806;2023-05-10T10:12:01;18.80;53.50
35668;DHT22;22158;59.280;17.806;2023-05-10T10:14:28;19.00;56.60
35668;DHT22;22158;59.280;17.806;2023-05-10T10:16:54;19.00;55.80
35668;DHT22;22158;59.280;17.806;2023-05-10T10:19:21;19.30;52.70
35668;DHT22;22158;59.280;17.806;2023-05-10T10:21:50;19.00;53.90
35668;DHT22;22158;59.280;17.806;2023-05-10T10:24:16;19.00;54.10
35668;DHT22;22158;59.280;17.806;2023-05-10T10:26:42;19.00;54.40
35668;DHT22;22158;59.280;17.806;2023-05-10T10:29:26;19.20;54.00
35668;DHT22;22158;59.280;17.806;2023-05-10T10:32:07;19.20;53.50
35668;DHT22;22158;59.280;17.806;2023-05-10T10:34:34;19.30;54.20
35668;DHT22;22158;59.280;17.806;2023-05-10T10:37:05;19.50;53.50
35668;DHT22;22158;59.280;17.806;2023-05-10T10:39:31;19.60;52.50
35668;DHT22;22158;59.280;17.806;2023-05-10T10:41:58;19.60;53.70
35668;DHT22;22158;59.280;17.806;2023-05-10T10:44:33;19.50;52.10
35668;DHT22;22158;59.280;17.806;2023-05-10T10:49:32;19.70;53.90
35668;DHT22;22158;59.280;17.806;2023-05-10T10:52:32;19.70;52.70
35668;DHT22;22158;59.280;17.806;2023-05-10T10:57:53;19.70;52.60
35668;DHT22;22158;59.280;17.806;2023-05-10T11:00:30;19.80;52.10
35668;DHT22;22158;59.280;17.806;2023-05-10T11:03:12;19.80;52.40
35668;DHT22;22158;59.280;17.806;2023-05-10T11:05:45;19.70;53.50
35668;DHT22;22158;59.280;17.806;2023-05-10T11:08:29;19.80;53.60
35668;DHT22;22158;59.280;17.806;2023-05-10T11:13:39;19.90;53.20
35668;DHT22;22158;59.280;17.806;2023-05-10T11:19:03;19.90;52.90
35668;DHT22;22158;59.280;17.806;2023-05-10T11:21:30;19.60;52.50
35668;DHT22;22158;59.280;17.806;2023-05-10T11:23:57;19.40;51.20
35668;DHT22;22158;59.280;17.806;2023-05-10T11:26:25;19.50;53.70
35668;DHT22;22158;59.280;17.806;2023-05-10T11:28:53;19.60;50.80
35668;DHT22;22158;59.280;17.806;2023-05-10T11:31:20;19.80;52.40
35668;DHT22;22158;59.280;17.806;2023-05-10T11:33:51;19.90;51.20
35668;DHT22;22158;59.280;17.806;2023-05-10T11:36:19;19.90;51.50
35668;DHT22;22158;59.280;17.806;2023-05-10T11:38:45;19.70;51.10
35668;DHT22;22158;59.280;17.806;2023-05-10T11:41:12;19.70;52.50
35668;DHT22;22158;59.280;17.806;2023-05-10T11:43:41;19.70;51.50
35668;DHT22;22158;59.280;17.806;2023-05-10T11:46:11;19.70;51.90
35668;DHT22;22158;59.280;17.806;2023-05-10T11:48:41;19.80;51.80
35668;DHT22;22158;59.280;17.806;2023-05-10T11:51:10;19.90;52.60
35668;DHT22;22158;59.280;17.806;2023-05-10T11:53:36;19.80;51.70
35668;DHT22;22158;59.280;17.806;2023-05-10T11:56:06;20.00;51.20
35668;DHT22;22158;59.280;17.806;2023-05-10T11:58:33;20.10;51.00
35668;DHT22;22158;59.280;17.806;2023-05-10T12:00:59;20.30;55.00
35668;DHT22;22158;59.280;17.806;2023-05-10T12:03:25;20.50;50.90
35668;DHT22;22158;59.280;17.806;2023-05-10T12:05:51;20.30;51.10
35668;DHT22;22158;59.280;17.806;2023-05-10T12:08:29;20.30;50.50
35668;DHT22;22158;59.280;17.806;2023-05-10T12:11:07;20.00;51.20
35668;DHT22;22158;59.280;17.806;2023-05-10T12:13:38;20.30;52.40
35668;DHT22;22158;59.280;17.806;2023-05-10T12:16:19;20.40;50.90
35668;DHT22;22158;59.280;17.806;2023-05-10T12:18:48;20.10;49.90
35668;DHT22;22158;59.280;17.806;2023-05-10T12:21:15;20.10;50.70
35668;DHT22;22158;59.280;17.806;2023-05-10T12:23:41;20.00;50.00
35668;DHT22;22158;59.280;17.806;2023-05-10T12:26:09;20.00;49.80
35668;DHT22;22158;59.280;17.806;2023-05-10T12:28:34;20.20;50.10
35668;DHT22;22158;59.280;17.806;2023-05-10T12:31:01;19.90;49.50
35668;DHT22;22158;59.280;17.806;2023-05-10T12:33:27;19.90;51.10
35668;DHT22;22158;59.280;17.806;2023-05-10T12:36:00;19.90;50.60
35668;DHT22;22158;59.280;17.806;2023-05-10T12:38:27;20.10;50.90
35668;DHT22;22158;59.280;17.806;2023-05-10T12:40:56;20.30;52.00
35668;DHT22;22158;59.280;17.806;2023-05-10T12:43:22;20.10;50.60
35668;DHT22;22158;59.280;17.806;2023-05-10T12:45:47;20.10;50.80
35668;DHT22;22158;59.280;17.806;2023-05-10T12:48:14;20.30;51.30
35668;DHT22;22158;59.280;17.806;2023-05-10T12:50:40;20.20;50.90
35668;DHT22;22158;59.280;17.806;2023-05-10T12:53:06;20.30;49.60
35668;DHT22;22158;59.280;17.806;2023-05-10T12:55:32;20.40;49.20
35668;DHT22;22158;59.280;17.806;2023-05-10T12:57:57;20.40;49.00
35668;DHT22;22158;59.280;17.806;2023-05-10T13:00:23;20.30;47.80
35668;DHT22;22158;59.280;17.806;2023-05-10T13:02:49;20.20;49.60
35668;DHT22;22158;59.280;17.806;2023-05-10T13:05:14;19.90;48.50
35668;DHT22;22158;59.280;17.806;2023-05-10T13:07:40;20.10;48.20
35668;DHT22;22158;59.280;17.806;2023-05-10T13:10:06;20.10;48.60
35668;DHT22;22158;59.280;17.806;2023-05-10T13:12:32;20.30;48.10
35668;DHT22;22158;59.280;17.806;2023-05-10T13:14:58;20.50;49.30
35668;DHT22;22158;59.280;17.806;2023-05-10T13:17:25;20.30;47.70
35668;DHT22;22158;59.280;17.806;2023-05-10T13:19:51;20.20;47.00
35668;DHT22;22158;59.280;17.806;2023-05-10T13:22:17;20.00;47.10
35668;DHT22;22158;59.280;17.806;2023-05-10T13:24:42;19.80;49.00
35668;DHT22;22158;59.280;17.806;2023-05-10T13:27:08;19.80;47.30
35668;DHT22;22158;59.280;17.806;2023-05-10T13:29:34;20.10;47.40
35668;DHT22;22158;59.280;17.806;2023-05-10T13:31:59;20.10;47.30
35668;DHT22;22158;59.280;17.806;2023-05-10T13:34:25;19.70;48.40
35668;DHT22;22158;59.280;17.806;2023-05-10T13:36:51;19.70;48.70
35668;DHT22;22158;59.280;17.806;2023-05-10T13:39:18;19.60;47.40
35668;DHT22;22158;59.280;17.806;2023-05-10T13:41:44;19.90;48.40
35668;DHT22;22158;59.280;17.806;2023-05-10T13:44:12;19.80;48.90
35668;DHT22;22158;59.280;17.806;2023-05-10T13:46:39;20.10;49.10
35668;DHT22;22158;59.280;17.806;2023-05-10T13:49:05;20.30;47.60
35668;DHT22;22158;59.280;17.806;2023-05-10T13:51:32;20.20;48.80
35668;DHT22;22158;59.280;17.806;2023-05-10T13:53:58;20.20;47.90
35668;DHT22;22158;59.280;17.806;2023-05-10T13:56:24;20.20;47.80
35668;DHT22;22158;59.280;17.806;2023-05-10T13:58:49;20.30;48.60
35668;DHT22;22158;59.280;17.806;2023-05-10T14:01:15;20.20;49.10
35668;DHT22;22158;59.280;17.806;2023-05-10T14:03:41;20.40;50.10
35668;DHT22;22158;59.280;17.806;2023-05-10T14:06:07;20.70;47.80
35668;DHT22;22158;59.280;17.806;2023-05-10T14:08:33;20.50;47.50
35668;DHT22;22158;59.280;17.806;2023-05-10T14:10:59;20.70;48.00
35668;DHT22;22158;59.280;17.806;2023-05-10T14:13:25;20.70;47.20
35668;DHT22;22158;59.280;17.806;2023-05-10T14:15:52;20.70;47.80
35668;DHT22;22158;59.280;17.806;2023-05-10T14:18:17;20.80;46.60
35668;DHT22;22158;59.280;17.806;2023-05-10T14:20:43;20.80;47.70
35668;DHT22;22158;59.280;17.806;2023-05-10T14:23:08;20.80;47.30
35668;DHT22;22158;59.280;17.806;2023-05-10T14:25:34;20.70;47.30
35668;DHT22;22158;59.280;17.806;2023-05-10T14:28:00;20.80;47.40
35668;DHT22;22158;59.280;17.806;2023-05-10T14:30:26;20.70;47.00
35668;DHT22;22158;59.280;17.806;2023-05-10T14:32:51;20.60;46.60
35668;DHT22;22158;59.280;17.806;2023-05-10T14:35:19;20.70;47.70
35668;DHT22;22158;59.280;17.806;2023-05-10T14:37:44;20.60;47.20
35668;DHT22;22158;59.280;17.806;2023-05-10T14:40:10;20.70;47.30
35668;DHT22;22158;59.280;17.806;2023-05-10T14:42:37;20.90;47.50
35668;DHT22;22158;59.280;17.806;2023-05-10T14:45:03;20.50;47.00
35668;DHT22;22158;59.280;17.806;2023-05-10T14:47:29;20.90;46.80
35668;DHT22;22158;59.280;17.806;2023-05-10T14:49:55;20.80;46.10
35668;DHT22;22158;59.280;17.806;2023-05-10T14:52:21;20.80;46.00
35668;DHT22;22158;59.280;17.806;2023-05-10T14:54:46;20.80;47.30
35668;DHT22;22158;59.280;17.806;2023-05-10T14:57:12;20.60;47.30
35668;DHT22;22158;59.280;17.806;2023-05-10T14:59:38;20.70;46.60
35668;DHT22;22158;59.280;17.806;2023-05-10T15:02:03;20.70;46.40
35668;DHT22;22158;59.280;17.806;2023-05-10T15:04:29;20.20;46.80
35668;DHT22;22158;59.280;17.806;2023-05-10T15:06:55;20.40;48.20
35668;DHT22;22158;59.280;17.806;2023-05-10T15:09:24;20.60;48.40
35668;DHT22;22158;59.280;17.806;2023-05-10T15:11:50;20.60;46.70
35668;DHT22;22158;59.280;17.806;2023-05-10T15:14:15;20.40;47.00
35668;DHT22;22158;59.280;17.806;2023-05-10T15:16:41;20.70;48.20
35668;DHT22;22158;59.280;17.806;2023-05-10T15:19:06;20.50;46.20
35668;DHT22;22158;59.280;17.806;2023-05-10T15:21:32;20.50;47.00
35668;DHT22;22158;59.280;17.806;2023-05-10T15:24:04;20.20;46.90
35668;DHT22;22158;59.280;17.806;2023-05-10T15:26:30;20.10;47.50
35668;DHT22;22158;59.280;17.806;2023-05-10T15:28:56;19.90;46.60
35668;DHT22;22158;59.280;17.806;2023-05-10T15:31:21;19.90;47.50
35668;DHT22;22158;59.280;17.806;2023-05-10T15:33:47;19.90;47.30
35668;DHT22;22158;59.280;17.806;2023-05-10T15:36:13;20.00;47.10
35668;DHT22;22158;59.280;17.806;2023-05-10T15:38:38;20.30;47.10
35668;DHT22;22158;59.280;17.806;2023-05-10T15:41:04;20.20;46.20
35668;DHT22;22158;59.280;17.806;2023-05-10T15:43:30;20.30;46.60
35668;DHT22;22158;59.280;17.806;2023-05-10T15:45:55;19.60;46.60
35668;DHT22;22158;59.280;17.806;2023-05-10T15:48:21;19.50;47.40
35668;DHT22;22158;59.280;17.806;2023-05-10T15:50:46;19.70;47.60
35668;DHT22;22158;59.280;17.806;2023-05-10T15:53:12;20.00;47.60
35668;DHT22;22158;59.280;17.806;2023-05-10T15:55:37;19.90;46.40
35668;DHT22;22158;59.280;17.806;2023-05-10T15:58:03;19.90;47.10
35668;DHT22;22158;59.280;17.806;2023-05-10T16:00:28;19.90;47.10
35668;DHT22;22158;59.280;17.806;2023-05-10T16:02:54;20.10;46.80
35668;DHT22;22158;59.280;17.806;2023-05-10T16:05:20;20.10;46.70
35668;DHT22;22158;59.280;17.806;2023-05-10T16:07:46;20.20;47.30
35668;DHT22;22158;59.280;17.806;2023-05-10T16:10:12;20.30;47.40
35668;DHT22;22158;59.280;17.806;2023-05-10T16:12:38;19.90;47.70
35668;DHT22;22158;59.280;17.806;2023-05-10T16:15:04;19.90;46.20
35668;DHT22;22158;59.280;17.806;2023-05-10T16:17:30;19.60;46.40
35668;DHT22;22158;59.280;17.806;2023-05-10T16:19:56;19.10;49.00
35668;DHT22;22158;59.280;17.806;2023-05-10T16:22:22;19.10;47.20
35668;DHT22;22158;59.280;17.806;2023-05-10T16:24:51;18.90;47.60
35668;DHT22;22158;59.280;17.806;2023-05-10T16:27:18;18.90;48.10
35668;DHT22;22158;59.280;17.806;2023-05-10T16:29:43;18.40;48.20
35668;DHT22;22158;59.280;17.806;2023-05-10T16:32:09;18.50;48.40
35668;DHT22;22158;59.280;17.806;2023-05-10T16:34:35;18.50;47.70
35668;DHT22;22158;59.280;17.806;2023-05-10T16:37:00;18.50;48.40
35668;DHT22;22158;59.280;17.806;2023-05-10T16:39:26;18.50;48.60
35668;DHT22;22158;59.280;17.806;2023-05-10T16:41:51;18.50;48.30
35668;DHT22;22158;59.280;17.806;2023-05-10T16:44:17;18.30;48.40
35668;DHT22;22158;59.280;17.806;2023-05-10T16:46:42;17.90;48.50
35668;DHT22;22158;59.280;17.806;2023-05-10T16:49:08;18.00;48.80
35668;DHT22;22158;59.280;17.806;2023-05-10T16:51:34;18.00;48.70
35668;DHT22;22158;59.280;17.806;2023-05-10T16:53:59;17.90;49.00
35668;DHT22;22158;59.280;17.806;2023-05-10T16:56:25;17.60;50.00
35668;DHT22;22158;59.280;17.806;2023-05-10T16:58:51;17.40;48.80
35668;DHT22;22158;59.280;17.806;2023-05-10T17:01:18;17.20;50.00
35668;DHT22;22158;59.280;17.806;2023-05-10T17:03:43;17.10;50.10
35668;DHT22;22158;59.280;17.806;2023-05-10T17:06:10;16.90;50.80
35668;DHT22;22158;59.280;17.806;2023-05-10T17:08:36;16.80;50.00
35668;DHT22;22158;59.280;17.806;2023-05-10T17:11:03;16.50;49.90
35668;DHT22;22158;59.280;17.806;2023-05-10T17:13:28;16.30;50.40
35668;DHT22;22158;59.280;17.806;2023-05-10T17:15:55;16.20;51.10
35668;DHT22;22158;59.280;17.806;2023-05-10T17:18:20;16.10;51.60
35668;DHT22;22158;59.280;17.806;2023-05-10T17:20:46;16.00;50.10
35668;DHT22;22158;59.280;17.806;2023-05-10T17:23:12;15.90;50.90
35668;DHT22;22158;59.280;17.806;2023-05-10T17:25:38;15.80;52.30
35668;DHT22;22158;59.280;17.806;2023-05-10T17:28:04;15.80;51.10
35668;DHT22;22158;59.280;17.806;2023-05-10T17:30:30;15.80;52.20
35668;DHT22;22158;59.280;17.806;2023-05-10T17:33:01;15.40;51.50
35668;DHT22;22158;59.280;17.806;2023-05-10T17:35:27;15.40;51.70
35668;DHT22;22158;59.280;17.806;2023-05-10T17:37:52;15.40;51.80
35668;DHT22;22158;59.280;17.806;2023-05-10T17:40:18;15.30;51.90
35668;DHT22;22158;59.280;17.806;2023-05-10T17:42:44;15.40;52.70
35668;DHT22;22158;59.280;17.806;2023-05-10T17:45:10;15.30;52.90
35668;DHT22;22158;59.280;17.806;2023-05-10T17:47:36;15.30;52.60
35668;DHT22;22158;59.280;17.806;2023-05-10T17:50:02;15.30;52.60
35668;DHT22;22158;59.280;17.806;2023-05-10T17:52:28;15.20;52.90
35668;DHT22;22158;59.280;17.806;2023-05-10T17:54:54;15.00;52.90
35668;DHT22;22158;59.280;17.806;2023-05-10T17:57:19;14.90;53.20
35668;DHT22;22158;59.280;17.806;2023-05-10T17:59:45;14.80;54.30
35668;DHT22;22158;59.280;17.806;2023-05-10T18:02:12;14.80;53.60
35668;DHT22;22158;59.280;17.806;2023-05-10T18:04:41;14.70;54.20
35668;DHT22;22158;59.280;17.806;2023-05-10T18:07:08;14.70;54.40
35668;DHT22;22158;59.280;17.806;2023-05-10T18:09:34;14.60;53.90
35668;DHT22;22158;59.280;17.806;2023-05-10T18:12:01;14.50;53.90
35668;DHT22;22158;59.280;17.806;2023-05-10T18:14:27;14.50;54.00
35668;DHT22;22158;59.280;17.806;2023-05-10T18:16:56;14.50;54.40
35668;DHT22;22158;59.280;17.806;2023-05-10T18:19:22;14.40;55.10
35668;DHT22;22158;59.280;17.806;2023-05-10T18:21:49;14.30;54.70
35668;DHT22;22158;59.280;17.806;2023-05-10T18:24:15;14.30;54.90
35668;DHT22;22158;59.280;17.806;2023-05-10T18:26:42;14.30;55.90
35668;DHT22;22158;59.280;17.806;2023-05-10T18:29:07;14.10;55.70
35668;DHT22;22158;59.280;17.806;2023-05-10T18:31:33;14.10;55.20
35668;DHT22;22158;59.280;17.806;2023-05-10T18:33:59;14.00;55.00
35668;DHT22;22158;59.280;17.806;2023-05-10T18:36:24;13.90;55.60
35668;DHT22;22158;59.280;17.806;2023-05-10T18:38:50;13.80;55.90
35668;DHT22;22158;59.280;17.806;2023-05-10T18:41:16;13.80;55.90
35668;DHT22;22158;59.280;17.806;2023-05-10T18:43:41;13.70;56.40
35668;DHT22;22158;59.280;17.806;2023-05-10T18:46:07;13.70;56.20
35668;DHT22;22158;59.280;17.806;2023-05-10T18:48:33;13.70;56.80
35668;DHT22;22158;59.280;17.806;2023-05-10T18:50:59;13.60;57.30
35668;DHT22;22158;59.280;17.806;2023-05-10T18:53:24;13.40;56.90
35668;DHT22;22158;59.280;17.806;2023-05-10T18:55:59;13.40;57.30
35668;DHT22;22158;59.280;17.806;2023-05-10T18:58:27;13.30;57.70
35668;DHT22;22158;59.280;17.806;2023-05-10T19:00:53;13.20;58.00
35668;DHT22;22158;59.280;17.806;2023-05-10T19:03:19;13.20;58.70
35668;DHT22;22158;59.280;17.806;2023-05-10T19:05:45;13.10;58.00
35668;DHT22;22158;59.280;17.806;2023-05-10T19:08:13;13.10;58.70
35668;DHT22;22158;59.280;17.806;2023-05-10T19:10:39;13.10;58.50
35668;DHT22;22158;59.280;17.806;2023-05-10T19:13:05;13.00;58.80
35668;DHT22;22158;59.280;17.806;2023-05-10T19:15:30;12.90;59.20
35668;DHT22;22158;59.280;17.806;2023-05-10T19:17:56;12.90;59.20
35668;DHT22;22158;59.280;17.806;2023-05-10T19:20:22;12.80;59.40
35668;DHT22;22158;59.280;17.806;2023-05-10T19:22:51;12.80;59.00
35668;DHT22;22158;59.280;17.806;2023-05-10T19:25:16;12.60;59.00
35668;DHT22;22158;59.280;17.806;2023-05-10T19:27:42;12.60;59.70
35668;DHT22;22158;59.280;17.806;2023-05-10T19:30:08;12.50;59.50
35668;DHT22;22158;59.280;17.806;2023-05-10T19:32:34;12.40;59.90
35668;DHT22;22158;59.280;17.806;2023-05-10T19:35:00;12.40;60.10
35668;DHT22;22158;59.280;17.806;2023-05-10T19:37:26;12.30;60.70
35668;DHT22;22158;59.280;17.806;2023-05-10T19:39:51;12.20;61.00
35668;DHT22;22158;59.280;17.806;2023-05-10T19:42:19;12.20;61.60
35668;DHT22;22158;59.280;17.806;2023-05-10T19:44:44;12.10;61.90
35668;DHT22;22158;59.280;17.806;2023-05-10T19:47:10;12.00;62.00
35668;DHT22;22158;59.280;17.806;2023-05-10T19:49:36;11.90;62.40
35668;DHT22;22158;59.280;17.806;2023-05-10T19:52:03;11.90;62.90
35668;DHT22;22158;59.280;17.806;2023-05-10T19:54:29;11.80;63.20
35668;DHT22;22158;59.280;17.806;2023-05-10T19:56:54;11.70;63.20
35668;DHT22;22158;59.280;17.806;2023-05-10T19:59:20;11.70;63.30
35668;DHT22;22158;59.280;17.806;2023-05-10T20:01:46;11.60;63.80
35668;DHT22;22158;59.280;17.806;2023-05-10T20:04:11;11.60;64.30
35668;DHT22;22158;59.280;17.806;2023-05-10T20:06:37;11.50;65.00
35668;DHT22;22158;59.280;17.806;2023-05-10T20:09:03;11.50;65.30
35668;DHT22;22158;59.280;17.806;2023-05-10T20:11:29;11.30;65.60
35668;DHT22;22158;59.280;17.806;2023-05-10T20:13:55;11.30;66.90
35668;DHT22;22158;59.280;17.806;2023-05-10T20:16:21;11.20;66.90
35668;DHT22;22158;59.280;17.806;2023-05-10T20:18:47;11.20;67.50
35668;DHT22;22158;59.280;17.806;2023-05-10T20:21:12;11.10;68.10
35668;DHT22;22158;59.280;17.806;2023-05-10T20:23:38;11.10;68.40
35668;DHT22;22158;59.280;17.806;2023-05-10T20:26:04;11.00;68.50